Time;durP1;ratioP1;P1;durP2;ratioP2;P2;SDS_P1;SDS_P2;PMS_P1;PMS_P2;Temp;Humidity;BMP_temperature;BMP_pressure;BME280_temperature;BME280_humidity;BME280_pressure;Samples;Min_cycle;Max_cycle;Signal;HPM_P1;HPM_P2
2022/06/11 00:01:53;;;;;;;6.15;3.53;;;26.30;1.00;;;;;;5076224;28;20107;-51
2022/06/11 00:04:24;;;;;;;5.38;4.10;;;26.30;1.00;;;;;;5082854;28;20021;-45
2022/06/11 00:06:52;;;;;;;5.72;3.63;;;26.30;1.00;;;;;;5078372;28;20028;-45
2022/06/11 00:09:21;;;;;;;4.90;2.97;;;26.20;1.00;;;;;;5088834;28;20493;-44
2022/06/11 00:11:48;;;;;;;3.78;3.45;;;26.10;1.00;;;;;;5075833;28;20035;-46
2022/06/11 00:14:14;;;;;;;4.53;3.55;;;26.00;1.00;;;;;;5085462;28;20115;-46
2022/06/11 00:16:41;;;;;;;4.85;2.90;;;26.10;1.00;;;;;;5079749;28;20032;-46
2022/06/11 00:25:50;;;;;;;5.68;3.20;;;26.00;1.00;;;;;;5080999;28;20056;-48
2022/06/11 00:28:16;;;;;;;4.53;2.70;;;25.90;1.00;;;;;;5082285;28;20032;-43
2022/06/11 00:30:43;;;;;;;5.38;3.13;;;25.90;1.00;;;;;;5092345;28;20064;-43
2022/06/11 00:33:08;;;;;;;4.70;2.78;;;25.90;1.00;;;;;;5077650;28;20358;-45
2022/06/11 00:35:36;;;;;;;5.05;2.83;;;26.00;1.00;;;;;;5082856;28;20040;-44
2022/06/11 00:38:02;;;;;;;4.35;2.78;;;26.00;1.00;;;;;;5079160;28;20496;-44
2022/06/11 00:40:30;;;;;;;5.18;2.78;;;26.10;1.00;;;;;;5081715;28;20055;-44
2022/06/11 00:42:56;;;;;;;3.92;2.85;;;25.90;1.00;;;;;;5080782;28;20547;-46
2022/06/11 00:45:31;;;;;;;5.03;3.15;;;25.90;1.00;;;;;;5080423;28;20024;-47
2022/06/11 00:48:15;;;;;;;4.78;2.78;;;25.90;1.00;;;;;;5081969;28;20039;-46
2022/06/11 00:50:51;;;;;;;7.68;3.55;;;26.00;1.00;;;;;;5082916;28;20032;-44
2022/06/11 00:53:29;;;;;;;5.65;3.53;;;25.90;1.00;;;;;;5079956;28;20028;-49
2022/06/11 00:55:54;;;;;;;5.70;2.95;;;25.80;1.00;;;;;;5074237;28;20040;-44
2022/06/11 00:58:28;;;;;;;3.50;2.45;;;25.90;1.00;;;;;;5075310;28;20020;-46
2022/06/11 01:00:58;;;;;;;2.58;2.30;;;26.10;1.00;;;;;;5076584;28;20391;-45
2022/06/11 01:03:30;;;;;;;4.25;2.65;;;25.70;1.00;;;;;;5075809;28;20494;-44
2022/06/11 01:06:28;;;;;;;5.70;2.60;;;25.80;1.00;;;;;;5092643;28;20494;-44
2022/06/11 01:09:19;;;;;;;5.43;2.15;;;25.50;1.00;;;;;;5077038;28;20367;-45
2022/06/11 01:12:25;;;;;;;4.90;2.50;;;25.50;1.00;;;;;;5078162;28;20063;-47
2022/06/11 01:14:59;;;;;;;3.75;2.10;;;25.40;1.00;;;;;;5042851;28;20094;-43
2022/06/11 01:18:06;;;;;;;1.95;1.60;;;25.50;1.00;;;;;;5056882;28;20021;-44
2022/06/11 01:21:22;;;;;;;4.45;2.25;;;25.40;1.00;;;;;;5087646;28;20020;-47
2022/06/11 01:24:25;;;;;;;3.22;1.77;;;25.40;1.00;;;;;;5049378;28;20029;-46
2022/06/11 01:27:09;;;;;;;4.07;2.03;;;25.50;1.00;;;;;;5068382;28;20032;-46
2022/06/11 01:29:35;;;;;;;4.85;1.55;;;25.40;1.00;;;;;;5074248;28;20095;-46
2022/06/11 01:32:41;;;;;;;3.30;1.92;;;25.40;1.00;;;;;;5079396;28;20103;-47
2022/06/11 01:35:22;;;;;;;2.58;1.88;;;25.30;1.00;;;;;;5075127;28;20032;-46
2022/06/11 01:38:03;;;;;;;2.42;1.77;;;25.50;1.00;;;;;;5091724;28;20019;-44
2022/06/11 01:40:44;;;;;;;4.10;1.85;;;25.20;1.00;;;;;;5077872;28;20059;-46
2022/06/11 01:43:16;;;;;;;1.98;1.40;;;25.40;1.00;;;;;;5089486;28;20024;-44
2022/06/11 01:45:42;;;;;;;3.83;1.50;;;25.30;1.00;;;;;;5079319;28;20054;-46
2022/06/11 01:48:15;;;;;;;1.50;1.40;;;25.40;1.00;;;;;;5090599;28;20427;-44
2022/06/11 01:50:50;;;;;;;2.70;1.27;;;25.30;1.00;;;;;;5079000;28;20039;-45
2022/06/11 01:53:47;;;;;;;3.42;1.55;;;25.30;1.00;;;;;;5075645;28;20036;-47
2022/06/11 01:56:37;;;;;;;3.30;1.10;;;25.20;1.00;;;;;;5070040;28;20052;-45
2022/06/11 01:59:29;;;;;;;1.20;1.10;;;25.30;1.00;;;;;;5074241;28;20027;-45
2022/06/11 02:02:29;;;;;;;5.03;1.35;;;25.30;1.00;;;;;;5082552;28;20470;-46
2022/06/11 02:05:19;;;;;;;5.30;1.40;;;25.20;1.00;;;;;;5086154;28;20032;-46
2022/06/11 02:08:13;;;;;;;2.35;1.20;;;25.20;1.00;;;;;;5093103;28;20024;-48
2022/06/11 02:10:50;;;;;;;2.75;1.30;;;25.20;1.00;;;;;;5083087;28;20043;-46
2022/06/11 02:13:54;;;;;;;3.22;1.17;;;25.20;1.00;;;;;;5068001;28;20032;-48
2022/06/11 02:16:25;;;;;;;;;;;25.20;1.00;;;;;;5081250;28;20397;-44
2022/06/11 02:18:53;;;;;;;1.45;1.02;;;25.00;1.00;;;;;;5082592;28;20384;-47
2022/06/11 02:21:30;;;;;;;1.65;1.10;;;24.90;1.00;;;;;;5085022;28;20086;-44
2022/06/11 02:24:09;;;;;;;3.78;1.50;;;24.90;1.00;;;;;;5073753;28;20131;-51
2022/06/11 02:26:43;;;;;;;2.78;1.00;;;25.00;1.00;;;;;;5075803;28;20378;-49
2022/06/11 02:29:11;;;;;;;2.83;1.30;;;24.80;1.00;;;;;;5073524;28;20132;-50
2022/06/11 02:32:05;;;;;;;2.10;0.90;;;25.00;1.00;;;;;;5081821;28;20020;-45
2022/06/11 02:34:31;;;;;;;2.33;1.35;;;24.80;1.00;;;;;;5074510;28;20070;-45
2022/06/11 02:37:02;;;;;;;2.45;1.30;;;25.00;1.00;;;;;;5064515;28;20110;-46
2022/06/11 02:39:31;;;;;;;2.38;1.23;;;24.90;1.00;;;;;;5073710;28;20032;-44
2022/06/11 02:41:57;;;;;;;1.50;1.40;;;24.90;1.00;;;;;;5079280;28;20437;-44
2022/06/11 02:44:23;;;;;;;3.85;1.25;;;25.10;1.00;;;;;;5077262;28;20099;-43
2022/06/11 02:46:50;;;;;;;2.20;1.08;;;24.80;1.00;;;;;;5077450;28;20078;-47
2022/06/11 02:49:26;;;;;;;2.60;1.40;;;24.90;1.00;;;;;;5080642;28;20423;-45
2022/06/11 02:51:55;;;;;;;1.40;1.27;;;24.70;1.00;;;;;;5086286;28;20118;-44
2022/06/11 02:54:21;;;;;;;3.95;1.15;;;24.70;1.00;;;;;;5093502;28;20419;-44
2022/06/11 02:56:49;;;;;;;2.78;1.13;;;24.90;1.00;;;;;;5091537;28;20047;-44
2022/06/11 02:59:15;;;;;;;3.20;1.27;;;24.80;1.00;;;;;;5093394;28;20457;-46
2022/06/11 03:01:41;;;;;;;1.27;1.05;;;24.90;1.00;;;;;;5091603;28;20032;-44
2022/06/11 03:04:07;;;;;;;1.75;1.30;;;25.00;1.00;;;;;;5092923;28;20033;-44
2022/06/11 03:06:33;;;;;;;2.83;1.65;;;24.80;1.00;;;;;;5091896;28;20032;-43
2022/06/11 03:08:59;;;;;;;1.40;1.30;;;24.90;1.00;;;;;;5090297;28;20030;-44
2022/06/11 03:11:26;;;;;;;3.95;1.05;;;24.70;1.00;;;;;;5081058;28;20024;-44
2022/06/11 03:13:52;;;;;;;2.78;1.17;;;24.70;1.00;;;;;;5078013;28;20028;-44
2022/06/11 03:16:18;;;;;;;5.65;1.33;;;24.70;1.00;;;;;;5090926;28;20550;-45
2022/06/11 03:18:44;;;;;;;2.53;1.10;;;24.90;1.00;;;;;;5074849;28;20028;-47
2022/06/11 03:21:09;;;;;;;2.10;1.02;;;24.90;1.00;;;;;;5090684;28;20036;-46
2022/06/11 03:23:35;;;;;;;3.83;1.25;;;24.70;1.00;;;;;;5092900;28;20385;-47
2022/06/11 03:26:02;;;;;;;2.80;1.60;;;24.90;1.00;;;;;;5089316;28;20032;-43
2022/06/11 03:28:29;;;;;;;2.97;1.70;;;24.80;1.00;;;;;;5066199;28;20020;-43
2022/06/11 03:30:56;;;;;;;4.30;1.55;;;24.80;1.00;;;;;;5076091;28;20036;-44
2022/06/11 03:33:24;;;;;;;3.97;1.20;;;24.70;1.00;;;;;;5086349;28;20012;-49
2022/06/11 03:35:51;;;;;;;2.20;1.20;;;24.60;1.00;;;;;;5075663;28;20478;-45
2022/06/11 03:38:18;;;;;;;1.98;1.35;;;24.60;1.00;;;;;;5088096;28;20017;-45
2022/06/11 03:40:44;;;;;;;3.72;1.77;;;24.60;1.00;;;;;;5064903;28;20052;-45
2022/06/11 03:43:10;;;;;;;2.35;1.10;;;24.40;1.00;;;;;;5089541;28;20489;-49
2022/06/11 03:45:36;;;;;;;2.80;1.55;;;24.60;1.00;;;;;;5072562;28;20056;-45
2022/06/11 03:48:03;;;;;;;3.15;1.17;;;24.50;1.00;;;;;;5091289;28;20020;-47
2022/06/11 03:50:34;;;;;;;4.07;1.40;;;24.60;1.00;;;;;;5078277;28;20028;-46
2022/06/11 03:53:02;;;;;;;1.92;1.15;;;24.60;1.00;;;;;;5085754;28;20075;-44
2022/06/11 03:55:28;;;;;;;3.97;1.30;;;24.60;1.00;;;;;;5072832;28;20435;-47
2022/06/11 03:57:55;;;;;;;2.25;1.13;;;24.40;1.00;;;;;;5091389;28;20086;-46
2022/06/11 04:03:09;;;;;;;3.15;1.45;;;24.40;1.00;;;;;;5085097;28;20047;-43
2022/06/11 04:05:37;;;;;;;5.32;1.40;;;24.40;1.00;;;;;;5072993;28;20013;-45
2022/06/11 04:08:03;;;;;;;2.25;1.20;;;24.40;1.00;;;;;;5092339;28;20035;-45
2022/06/11 04:10:29;;;;;;;3.22;1.20;;;24.20;1.00;;;;;;5074812;28;20107;-45
2022/06/11 04:12:56;;;;;;;2.47;1.55;;;24.50;1.00;;;;;;5063750;28;20481;-47
2022/06/11 04:15:21;;;;;;;3.00;1.58;;;24.20;1.00;;;;;;5072319;28;20036;-45
2022/06/11 04:17:47;;;;;;;3.42;1.40;;;24.20;1.00;;;;;;5088713;28;20440;-46
2022/06/11 04:20:14;;;;;;;2.40;1.50;;;24.40;1.00;;;;;;5079937;28;20038;-46
2022/06/11 04:22:41;;;;;;;6.85;2.08;;;24.50;1.00;;;;;;5091645;28;20177;-45
2022/06/11 04:25:08;;;;;;;2.67;1.77;;;24.50;1.00;;;;;;5084580;28;20429;-44
2022/06/11 04:27:34;;;;;;;2.35;1.38;;;24.60;1.00;;;;;;5090280;28;20020;-44
2022/06/11 04:30:00;;;;;;;3.10;1.55;;;24.40;1.00;;;;;;5075736;28;20048;-47
2022/06/11 04:32:27;;;;;;;2.65;1.65;;;24.40;1.00;;;;;;5090505;28;20020;-44
2022/06/11 04:34:54;;;;;;;2.92;1.20;;;24.40;1.00;;;;;;5087857;28;20035;-47
2022/06/11 04:37:22;;;;;;;2.20;1.05;;;24.50;1.00;;;;;;5075521;28;20154;-44
2022/06/11 04:39:50;;;;;;;3.88;1.50;;;24.40;1.00;;;;;;5060711;28;20031;-46
2022/06/11 04:42:18;;;;;;;4.18;1.25;;;24.50;1.00;;;;;;5067967;28;20028;-44
2022/06/11 04:44:45;;;;;;;1.40;1.08;;;24.60;1.00;;;;;;5091494;28;20029;-44
2022/06/11 04:47:13;;;;;;;2.03;0.90;;;24.60;1.00;;;;;;5088100;28;20071;-47
2022/06/11 04:49:39;;;;;;;2.45;0.90;;;24.40;1.00;;;;;;5075377;28;20028;-43
2022/06/11 04:52:05;;;;;;;2.85;1.00;;;24.60;1.00;;;;;;5093517;28;20028;-50
2022/06/11 04:54:32;;;;;;;2.45;1.05;;;24.50;1.00;;;;;;5095779;28;20453;-44
2022/06/11 04:56:57;;;;;;;2.58;0.90;;;24.40;1.00;;;;;;5076933;28;20504;-47
2022/06/11 04:59:23;;;;;;;5.20;1.17;;;24.40;1.00;;;;;;5085329;28;20052;-44
2022/06/11 05:01:49;;;;;;;5.32;1.02;;;24.40;1.00;;;;;;5064022;28;20382;-45
2022/06/11 05:04:15;;;;;;;2.83;1.52;;;24.50;1.00;;;;;;5069627;28;20397;-49
2022/06/11 05:06:45;;;;;;;2.50;1.30;;;24.40;1.00;;;;;;5087396;28;20119;-44
2022/06/11 05:09:14;;;;;;;4.00;1.58;;;24.30;1.00;;;;;;5081637;28;20389;-44
2022/06/11 05:11:41;;;;;;;4.65;1.30;;;24.20;1.00;;;;;;5090070;28;20081;-46
2022/06/11 05:14:06;;;;;;;2.78;1.60;;;24.20;1.00;;;;;;5094110;28;20031;-46
2022/06/11 05:16:33;;;;;;;3.33;1.25;;;24.30;1.00;;;;;;5083904;28;20032;-46
2022/06/11 05:18:59;;;;;;;4.60;2.10;;;24.20;1.00;;;;;;5092156;28;20371;-44
2022/06/11 05:21:24;;;;;;;3.13;1.70;;;24.10;1.00;;;;;;5074534;28;20039;-46
2022/06/11 05:23:50;;;;;;;3.92;1.88;;;24.10;1.00;;;;;;5061226;28;20032;-43
2022/06/11 05:26:18;;;;;;;2.83;1.83;;;24.10;1.00;;;;;;5087866;28;20032;-43
2022/06/11 05:28:45;;;;;;;3.88;1.73;;;24.20;1.00;;;;;;5091374;28;20169;-44
2022/06/11 05:31:11;;;;;;;3.63;1.80;;;24.00;1.00;;;;;;5088603;28;20043;-43
2022/06/11 05:33:37;;;;;;;3.78;1.33;;;24.30;1.00;;;;;;5090820;28;20019;-44
2022/06/11 05:36:03;;;;;;;2.70;1.50;;;24.30;1.00;;;;;;5077024;28;20041;-43
2022/06/11 05:38:29;;;;;;;3.55;1.52;;;24.20;1.00;;;;;;5090479;28;20021;-44
2022/06/11 05:40:56;;;;;;;4.82;1.42;;;24.40;1.00;;;;;;5062387;28;20367;-43
2022/06/11 05:43:22;;;;;;;1.63;1.20;;;24.30;1.00;;;;;;5091710;28;20032;-43
2022/06/11 05:46:07;;;;;;;2.15;1.27;;;24.20;1.00;;;;;;5093424;28;20054;-44
2022/06/11 05:48:36;;;;;;;4.32;1.50;;;24.10;1.00;;;;;;5083913;28;20042;-47
2022/06/11 05:51:02;;;;;;;5.10;1.48;;;24.10;1.00;;;;;;5085283;28;20054;-43
2022/06/11 05:53:32;;;;;;;3.72;1.40;;;24.20;1.00;;;;;;5092988;28;20351;-48
2022/06/11 05:56:01;;;;;;;1.95;1.23;;;24.10;1.00;;;;;;5084902;28;20382;-44
2022/06/11 05:58:51;;;;;;;3.10;1.17;;;24.30;1.00;;;;;;5088695;28;20074;-44
2022/06/11 06:01:21;;;;;;;3.25;1.20;;;24.30;1.00;;;;;;5071935;28;20063;-46
2022/06/11 06:03:47;;;;;;;3.17;1.17;;;24.00;1.00;;;;;;5089344;28;20039;-45
2022/06/11 06:06:12;;;;;;;3.42;1.13;;;24.10;1.00;;;;;;5085190;28;20440;-44
2022/06/11 06:08:38;;;;;;;3.47;1.38;;;24.20;1.00;;;;;;5092961;28;20027;-46
2022/06/11 06:11:04;;;;;;;3.72;1.52;;;24.10;1.00;;;;;;5068283;28;20033;-48
2022/06/11 06:13:47;;;;;;;3.35;1.30;;;24.20;1.00;;;;;;5092263;28;20035;-43
2022/06/11 06:16:25;;;;;;;1.67;1.20;;;24.20;1.00;;;;;;5082357;28;20381;-43
2022/06/11 06:18:52;;;;;;;2.63;1.45;;;24.30;1.00;;;;;;5092389;28;20028;-43
2022/06/11 06:21:21;;;;;;;2.58;1.30;;;24.30;1.00;;;;;;5085926;28;20363;-46
2022/06/11 06:23:47;;;;;;;2.35;1.60;;;24.20;1.00;;;;;;5092120;28;20116;-47
2022/06/11 06:26:14;;;;;;;3.25;1.73;;;24.30;1.00;;;;;;5087133;28;20100;-47
2022/06/11 06:28:39;;;;;;;2.60;1.50;;;24.40;1.00;;;;;;5084547;28;20024;-48
2022/06/11 06:31:07;;;;;;;5.45;1.60;;;24.40;1.00;;;;;;5092496;28;20036;-49
2022/06/11 06:33:32;;;;;;;2.67;1.45;;;24.30;1.00;;;;;;5062735;28;20032;-48
2022/06/11 06:35:59;;;;;;;2.88;1.73;;;24.40;1.00;;;;;;5073057;28;21776;-46
2022/06/11 06:38:25;;;;;;;2.75;1.70;;;24.40;1.00;;;;;;5072723;28;20025;-44
2022/06/11 06:40:51;;;;;;;3.40;1.35;;;24.40;1.00;;;;;;5081361;28;20529;-45
2022/06/11 06:43:18;;;;;;;4.70;1.88;;;24.70;1.00;;;;;;5091719;28;20119;-46
2022/06/11 06:45:43;;;;;;;4.35;2.03;;;24.80;1.00;;;;;;5088996;28;20153;-46
2022/06/11 06:48:09;;;;;;;3.25;1.75;;;24.70;1.00;;;;;;5082425;28;20106;-44
2022/06/11 06:50:35;;;;;;;2.88;1.50;;;24.90;1.00;;;;;;5090618;28;20048;-47
2022/06/11 06:53:00;;;;;;;4.30;1.75;;;25.00;1.00;;;;;;5079981;28;20028;-47
2022/06/11 06:55:26;;;;;;;3.60;2.03;;;24.80;1.00;;;;;;5079012;28;20042;-47
2022/06/11 06:57:52;;;;;;;3.75;2.15;;;24.80;1.00;;;;;;5086977;28;20039;-47
2022/06/11 07:00:18;;;;;;;2.75;1.80;;;25.10;1.00;;;;;;5084920;28;20042;-46
2022/06/11 07:02:45;;;;;;;4.57;2.35;;;25.10;1.00;;;;;;5090438;28;20055;-49
2022/06/11 07:05:13;;;;;;;2.90;2.03;;;25.10;1.00;;;;;;5092934;28;20028;-47
2022/06/11 07:07:39;;;;;;;4.15;2.35;;;25.30;1.00;;;;;;5077107;28;20039;-47
2022/06/11 07:10:07;;;;;;;3.03;2.30;;;25.20;1.00;;;;;;5074827;28;20048;-47
2022/06/11 07:12:33;;;;;;;4.38;2.25;;;25.20;1.00;;;;;;5072118;28;20024;-47
2022/06/11 07:14:59;;;;;;;4.18;2.22;;;25.20;1.00;;;;;;5085517;28;20539;-48
2022/06/11 07:17:27;;;;;;;3.25;2.30;;;25.60;1.00;;;;;;5073325;28;20024;-48
2022/06/11 07:20:04;;;;;;;5.90;2.47;;;25.40;1.00;;;;;;5077714;28;20028;-48
2022/06/11 07:22:36;;;;;;;7.78;3.17;;;25.40;1.00;;;;;;5092414;28;20074;-48
2022/06/11 07:25:06;;;;;;;5.10;2.75;;;25.50;1.00;;;;;;5076978;28;20055;-52
2022/06/11 07:27:37;;;;;;;4.68;2.83;;;25.60;1.00;;;;;;5085520;28;20012;-49
2022/06/11 07:30:14;;;;;;;6.85;2.65;;;25.80;1.00;;;;;;5074249;28;20024;-52
2022/06/11 07:32:43;;;;;;;4.50;3.13;;;25.50;1.00;;;;;;5090740;28;20027;-44
2022/06/11 07:35:12;;;;;;;4.32;2.75;;;25.60;1.00;;;;;;5091690;28;20040;-44
2022/06/11 07:37:39;;;;;;;6.32;3.00;;;25.80;1.00;;;;;;5082424;28;20013;-44
2022/06/11 07:40:06;;;;;;;7.00;2.92;;;26.00;1.00;;;;;;5092693;28;20039;-44
2022/06/11 07:42:32;;;;;;;8.07;3.63;;;25.80;1.00;;;;;;5076344;28;20063;-47
2022/06/11 07:44:58;;;;;;;6.32;2.80;;;25.70;1.00;;;;;;5091828;28;20111;-46
2022/06/11 07:50:11;;;;;;;5.57;2.67;;;25.80;1.00;;;;;;5086748;28;20488;-48
2022/06/11 07:52:40;;;;;;;4.60;2.65;;;26.00;1.00;;;;;;5072169;28;20020;-50
2022/06/11 07:55:07;;;;;;;5.47;3.53;;;26.20;1.00;;;;;;5086860;28;20181;-48
2022/06/11 07:57:33;;;;;;;5.93;3.25;;;26.10;1.00;;;;;;5076718;28;20024;-46
2022/06/11 07:59:59;;;;;;;4.70;2.63;;;26.00;1.00;;;;;;5095295;28;20119;-43
2022/06/11 08:02:25;;;;;;;4.97;3.10;;;26.30;1.00;;;;;;5077795;28;20040;-48
2022/06/11 08:04:51;;;;;;;5.25;3.35;;;26.40;1.00;;;;;;5094071;28;20059;-43
2022/06/11 08:07:18;;;;;;;3.60;2.70;;;26.20;1.00;;;;;;5089771;28;20072;-46
2022/06/11 08:09:43;;;;;;;6.13;3.50;;;26.20;1.00;;;;;;5094984;28;20087;-51
2022/06/11 08:12:10;;;;;;;8.43;3.33;;;26.20;1.00;;;;;;5081800;28;20056;-46
2022/06/11 08:14:35;;;;;;;5.90;2.60;;;26.10;1.00;;;;;;5090945;28;20374;-45
2022/06/11 08:17:01;;;;;;;6.85;2.95;;;26.10;1.00;;;;;;5083492;28;20043;-48
2022/06/11 08:19:27;;;;;;;6.43;2.97;;;26.10;1.00;;;;;;5093943;28;20020;-44
2022/06/11 08:21:54;;;;;;;5.13;2.55;;;26.10;1.00;;;;;;5085464;28;20039;-46
2022/06/11 08:24:20;;;;;;;4.22;3.05;;;26.20;1.00;;;;;;5088318;28;20058;-48
2022/06/11 08:26:45;;;;;;;5.88;3.08;;;26.20;1.00;;;;;;5087066;28;20074;-45
2022/06/11 08:29:11;;;;;;;7.97;3.15;;;26.20;1.00;;;;;;5086215;28;20017;-48
2022/06/11 08:31:37;;;;;;;5.50;2.85;;;26.40;1.00;;;;;;5079261;28;20090;-47
2022/06/11 08:34:04;;;;;;;5.07;2.20;;;26.40;1.00;;;;;;5086836;28;20027;-46
2022/06/11 08:36:30;;;;;;;4.40;2.05;;;26.50;1.00;;;;;;5090418;28;20029;-44
2022/06/11 08:38:55;;;;;;;3.95;3.15;;;26.30;1.00;;;;;;5083548;28;20035;-45
2022/06/11 08:41:27;;;;;;;6.05;3.13;;;26.40;1.00;;;;;;5078492;28;20025;-49
2022/06/11 08:43:57;;;;;;;5.55;2.50;;;26.40;1.00;;;;;;5084077;28;20050;-44
2022/06/11 08:46:26;;;;;;;5.50;2.63;;;26.50;1.00;;;;;;5095494;28;20164;-50
2022/06/11 08:49:01;;;;;;;7.90;3.05;;;26.70;1.00;;;;;;5094218;28;20103;-51
2022/06/11 08:51:49;;;;;;;4.70;2.50;;;26.60;1.00;;;;;;5083598;28;20433;-47
2022/06/11 08:54:28;;;;;;;5.70;2.83;;;26.50;1.00;;;;;;5076224;28;20081;-48
2022/06/11 08:57:21;;;;;;;7.05;3.38;;;26.60;1.00;;;;;;5089185;28;20036;-51
2022/06/11 09:00:03;;;;;;;6.75;3.00;;;27.20;1.00;;;;;;5089181;28;20036;-45
2022/06/11 09:02:45;;;;;;;6.07;3.22;;;27.40;1.00;;;;;;5076197;28;20048;-51
2022/06/11 09:05:16;;;;;;;5.22;2.80;;;27.20;1.00;;;;;;5092375;28;20040;-47
2022/06/11 09:08:07;;;;;;;5.80;3.22;;;27.40;1.00;;;;;;5073913;28;20485;-47
2022/06/11 09:11:12;;;;;;;7.28;4.30;;;27.20;1.00;;;;;;5048559;28;20040;-47
2022/06/11 09:14:20;;;;;;;4.57;2.75;;;27.30;1.00;;;;;;5082400;28;20032;-48
2022/06/11 09:17:29;;;;;;;8.02;3.05;;;27.10;1.00;;;;;;5085639;28;20046;-44
2022/06/11 09:20:13;;;;;;;5.47;3.10;;;27.30;1.00;;;;;;5089948;28;20557;-49
2022/06/11 09:22:42;;;;;;;8.77;3.13;;;27.10;1.00;;;;;;5077797;28;20082;-44
2022/06/11 09:25:43;;;;;;;6.30;2.90;;;27.20;1.00;;;;;;5088980;28;20016;-44
2022/06/11 09:28:54;;;;;;;4.38;2.75;;;27.40;1.00;;;;;;5073708;28;20059;-44
2022/06/11 09:31:42;;;;;;;5.25;2.47;;;28.00;1.00;;;;;;5067740;28;20029;-47
2022/06/11 09:34:34;;;;;;;6.82;3.55;;;27.90;1.00;;;;;;5074669;28;20477;-49
2022/06/11 09:37:14;;;;;;;6.55;3.03;;;27.80;1.00;;;;;;5076137;28;20055;-46
2022/06/11 09:40:06;;;;;;;5.32;3.22;;;27.90;1.00;;;;;;5084575;28;20075;-47
2022/06/11 09:42:45;;;;;;;3.55;2.72;;;28.00;1.00;;;;;;5076908;28;20111;-48
2022/06/11 09:45:20;;;;;;;5.65;2.90;;;28.20;1.00;;;;;;5087005;28;20470;-51
2022/06/11 09:48:08;;;;;;;6.55;3.03;;;28.20;1.00;;;;;;5084488;28;20500;-47
2022/06/11 09:51:02;;;;;;;4.15;3.30;;;27.90;1.00;;;;;;5080042;28;20032;-47
2022/06/11 09:54:07;;;;;;;5.25;3.17;;;28.10;1.00;;;;;;5072112;28;20028;-49
2022/06/11 09:56:47;;;;;;;6.72;3.60;;;28.10;1.00;;;;;;5086333;28;20043;-49
2022/06/11 09:59:34;;;;;;;6.45;3.40;;;28.00;1.00;;;;;;5091654;28;20016;-49
2022/06/11 10:05:18;;;;;;;3.88;2.70;;;28.60;1.00;;;;;;5016254;28;20065;-50
2022/06/11 10:07:49;;;;;;;3.55;2.42;;;28.70;1.00;;;;;;5064358;28;20048;-50
2022/06/11 10:10:27;;;;;;;5.50;3.13;;;28.70;1.00;;;;;;5075896;28;20110;-49
2022/06/11 10:13:01;;;;;;;8.02;3.83;;;29.30;1.00;;;;;;5074330;28;20066;-48
2022/06/11 10:15:32;;;;;;;3.78;2.80;;;28.80;1.00;;;;;;5074819;28;20051;-48
2022/06/11 10:18:04;;;;;;;6.28;3.42;;;28.90;1.00;;;;;;5087417;28;20012;-49
2022/06/11 10:20:35;;;;;;;6.82;4.43;;;28.80;1.00;;;;;;5079022;28;20028;-46
2022/06/11 10:23:09;;;;;;;3.15;2.85;;;28.50;1.00;;;;;;5075181;28;20485;-50
2022/06/11 10:25:40;;;;;;;7.40;4.22;;;28.70;1.00;;;;;;5079598;28;20409;-49
2022/06/11 10:28:31;;;;;;;4.78;3.35;;;28.70;1.00;;;;;;5080710;28;20028;-51
2022/06/11 10:31:06;;;;;;;4.72;3.20;;;28.80;1.00;;;;;;5073253;28;20020;-47
2022/06/11 10:33:47;;;;;;;5.55;2.97;;;29.30;1.00;;;;;;5074049;28;20033;-50
2022/06/11 10:36:21;;;;;;;4.90;3.50;;;29.10;1.00;;;;;;5087727;28;20526;-50
2022/06/11 10:38:59;;;;;;;5.13;3.22;;;29.30;1.00;;;;;;5081539;28;20029;-48
2022/06/11 10:41:31;;;;;;;5.60;3.30;;;29.40;1.00;;;;;;5077300;28;20096;-47
2022/06/11 10:44:37;;;;;;;5.68;3.20;;;29.60;1.00;;;;;;5086764;28;20538;-47
2022/06/11 10:47:36;;;;;;;5.82;2.53;;;29.80;1.00;;;;;;5023521;28;20032;-55
2022/06/11 10:50:34;;;;;;;2.78;2.40;;;29.90;1.00;;;;;;5073168;28;20044;-57
2022/06/11 10:53:48;;;;;;;5.22;3.30;;;29.80;1.00;;;;;;5076254;28;20039;-57
2022/06/11 10:56:19;;;;;;;3.20;2.70;;;29.70;1.00;;;;;;5075706;28;20201;-57
2022/06/11 10:58:55;;;;;;;4.68;3.03;;;29.90;1.00;;;;;;5078280;28;20100;-57
2022/06/11 11:01:30;;;;;;;3.97;3.05;;;30.60;1.00;;;;;;5093151;28;20028;-57
2022/06/11 11:04:06;;;;;;;4.18;3.30;;;30.40;1.00;;;;;;5079344;28;20064;-57
2022/06/11 11:06:36;;;;;;;3.80;2.95;;;30.10;1.00;;;;;;5093205;28;20021;-57
2022/06/11 11:09:26;;;;;;;5.40;2.47;;;30.10;1.00;;;;;;5077576;28;20094;-56
2022/06/11 11:11:58;;;;;;;6.90;3.53;;;30.10;1.00;;;;;;5062401;28;20048;-57
2022/06/11 11:14:39;;;;;;;6.82;3.50;;;30.10;1.00;;;;;;5060917;28;20090;-57
2022/06/11 11:17:13;;;;;;;8.82;4.18;;;30.20;1.00;;;;;;5093144;28;20032;-58
2022/06/11 11:19:45;;;;;;;5.60;3.78;;;30.70;1.00;;;;;;5084956;28;20111;-57
2022/06/11 11:22:18;;;;;;;6.00;3.60;;;30.70;1.00;;;;;;5072816;28;20028;-59
2022/06/11 11:24:48;;;;;;;5.70;3.35;;;30.70;1.00;;;;;;5079687;28;20051;-57
2022/06/11 11:27:34;;;;;;;4.82;2.72;;;31.50;1.00;;;;;;5091767;28;20032;-56
2022/06/11 11:30:15;;;;;;;3.05;2.72;;;32.20;1.00;;;;;;5080178;28;20024;-59
2022/06/11 11:32:42;;;;;;;4.43;2.88;;;32.50;1.00;;;;;;5076320;28;20024;-58
2022/06/11 11:35:28;;;;;;;4.57;3.60;;;33.00;1.00;;;;;;5082033;28;20028;-57
2022/06/11 11:38:02;;;;;;;5.80;3.38;;;32.60;1.00;;;;;;5075445;28;20111;-57
2022/06/11 11:40:31;;;;;;;3.58;3.28;;;33.00;1.00;;;;;;5084798;28;20032;-58
2022/06/11 11:43:03;;;;;;;6.15;3.53;;;33.00;1.00;;;;;;5075690;28;20025;-57
2022/06/11 11:45:43;;;;;;;3.53;3.00;;;33.50;1.00;;;;;;5079562;28;20043;-58
2022/06/11 11:48:14;;;;;;;3.25;2.85;;;34.20;1.00;;;;;;5071461;28;20470;-57
2022/06/11 11:50:41;;;;;;;3.35;2.97;;;35.00;1.00;;;;;;5061475;28;20058;-58
2022/06/11 11:53:28;;;;;;;3.85;3.45;;;36.30;1.00;;;;;;5072617;28;20024;-58
2022/06/11 11:56:05;;;;;;;7.22;4.20;;;37.90;1.00;;;;;;5087531;28;20028;-57
2022/06/11 11:58:45;;;;;;;3.17;2.88;;;38.50;1.00;;;;;;5078404;28;20032;-59
2022/06/11 12:01:16;;;;;;;6.47;4.03;;;38.20;1.00;;;;;;5091456;28;20153;-57
2022/06/11 12:03:52;;;;;;;4.30;3.58;;;38.10;1.00;;;;;;5082437;28;20063;-58
2022/06/11 12:06:28;;;;;;;4.03;3.50;;;36.60;1.00;;;;;;5081973;28;20122;-60
2022/06/11 12:08:55;;;;;;;5.30;3.70;;;36.40;1.00;;;;;;5083029;28;20028;-57
2022/06/11 12:11:23;;;;;;;4.55;3.28;;;36.30;1.00;;;;;;5084071;28;20104;-57
2022/06/11 12:14:14;;;;;;;4.03;3.58;;;36.10;1.00;;;;;;5086702;28;20117;-58
2022/06/11 12:16:43;;;;;;;4.90;3.58;;;36.50;1.00;;;;;;5070456;28;20440;-59
2022/06/11 12:19:29;;;;;;;3.90;3.50;;;36.10;1.00;;;;;;5081158;28;20044;-57
2022/06/11 12:22:09;;;;;;;3.90;3.50;;;35.40;1.00;;;;;;5075701;28;20028;-50
2022/06/11 12:24:39;;;;;;;4.68;3.95;;;35.70;1.00;;;;;;5080589;28;20043;-49
2022/06/11 12:27:15;;;;;;;4.82;4.30;;;35.90;1.00;;;;;;5091880;28;20028;-45
2022/06/11 12:29:53;;;;;;;4.00;3.70;;;36.20;1.00;;;;;;5076997;28;20052;-51
2022/06/11 12:32:22;;;;;;;5.70;4.63;;;35.70;1.00;;;;;;5089022;28;20055;-51
2022/06/11 12:34:50;;;;;;;4.85;4.28;;;36.30;1.00;;;;;;5085731;28;20109;-50
2022/06/11 12:37:51;;;;;;;5.53;4.45;;;36.70;1.00;;;;;;5087196;28;20043;-51
2022/06/11 12:40:22;;;;;;;4.97;4.05;;;37.00;1.00;;;;;;5070581;28;20174;-47
2022/06/11 12:43:15;;;;;;;5.00;4.53;;;37.40;1.00;;;;;;5075908;28;20031;-51
2022/06/11 12:46:11;;;;;;;4.65;4.28;;;38.80;1.00;;;;;;5086230;28;20032;-49
2022/06/11 12:48:40;;;;;;;4.93;4.30;;;39.50;1.00;;;;;;5061231;28;20113;-47
2022/06/11 12:51:43;;;;;;;4.78;4.38;;;40.50;1.00;;;;;;5079626;28;20036;-48
2022/06/11 12:54:34;;;;;;;5.05;4.45;;;41.40;1.00;;;;;;5076522;28;20484;-51
2022/06/11 12:57:09;;;;;;;4.30;4.00;;;43.30;1.00;;;;;;5084325;28;20063;-48
2022/06/11 12:59:40;;;;;;;4.68;4.32;;;43.70;1.00;;;;;;5075800;28;20021;-53
2022/06/11 13:02:22;;;;;;;6.05;5.05;;;44.10;1.00;;;;;;5079776;28;20126;-49
2022/06/11 13:05:26;;;;;;;4.77;4.37;;;43.90;1.00;;;;;;5075973;28;20108;-49
2022/06/11 13:07:57;;;;;;;5.50;5.00;;;41.40;1.00;;;;;;5075828;28;20046;-49
2022/06/11 13:10:44;;;;;;;4.85;4.47;;;40.00;1.00;;;;;;5082298;28;20027;-49
2022/06/11 13:13:34;;;;;;;4.93;4.43;;;39.00;1.00;;;;;;5086029;28;20035;-52
2022/06/11 13:16:28;;;;;;;4.32;4.03;;;38.80;1.00;;;;;;5086564;28;20036;-49
2022/06/11 13:19:17;;;;;;;4.20;4.00;;;38.50;1.00;;;;;;5078743;28;20036;-50
2022/06/11 13:21:54;;;;;;;4.65;4.30;;;39.20;1.00;;;;;;5069055;28;20119;-50
2022/06/11 13:24:46;;;;;;;4.55;4.15;;;38.90;1.00;;;;;;5057528;28;20051;-47
2022/06/11 13:27:33;;;;;;;4.68;4.38;;;38.20;1.00;;;;;;5088871;28;20139;-47
2022/06/11 13:30:07;;;;;;;5.03;4.38;;;38.40;1.00;;;;;;5082415;28;20029;-45
2022/06/11 13:32:41;;;;;;;4.57;4.18;;;38.10;1.00;;;;;;5091916;28;20032;-49
2022/06/11 13:35:22;;;;;;;5.82;4.55;;;38.10;1.00;;;;;;5076820;28;20031;-46
2022/06/11 13:37:56;;;;;;;6.18;4.90;;;37.80;1.00;;;;;;5086525;28;20534;-45
2022/06/11 13:40:40;;;;;;;6.07;5.57;;;37.60;1.00;;;;;;5074553;28;20074;-50
2022/06/11 13:43:33;;;;;;;6.15;4.60;;;37.80;1.00;;;;;;5075393;28;20044;-46
2022/06/11 13:46:28;;;;;;;7.43;4.82;;;39.10;1.00;;;;;;5084285;28;20054;-48
2022/06/11 13:49:00;;;;;;;4.03;3.63;;;39.40;1.00;;;;;;5093716;28;20027;-46
2022/06/11 13:51:28;;;;;;;4.40;4.10;;;39.30;1.00;;;;;;5075465;28;20036;-49